createdAt,value
2018-12-23T00:01:07.744Z,7.78
2018-12-23T00:06:03.736Z,7.93
2018-12-23T00:10:59.728Z,7.97
2018-12-23T00:15:55.716Z,7.94
2018-12-23T00:20:51.710Z,7.99
2018-12-23T00:25:47.808Z,8.00
2018-12-23T00:30:43.802Z,7.96
2018-12-23T00:35:39.780Z,7.96
2018-12-23T00:40:35.773Z,7.97
2018-12-23T00:45:31.758Z,8.00
2018-12-23T00:50:27.753Z,7.95
2018-12-23T00:55:23.742Z,7.92
2018-12-23T01:00:19.703Z,7.90
2018-12-23T01:05:15.700Z,7.89
2018-12-23T01:10:11.702Z,7.83
2018-12-23T01:15:07.900Z,7.84
2018-12-23T01:20:06.015Z,7.79
2018-12-23T01:25:02.437Z,7.80
2018-12-23T01:29:58.438Z,7.84
2018-12-23T01:34:54.429Z,7.82
2018-12-23T01:39:50.400Z,7.86
2018-12-23T01:44:46.397Z,7.82
2018-12-23T01:49:42.381Z,7.81
2018-12-23T01:54:38.362Z,7.85
2018-12-23T01:59:34.353Z,7.84
2018-12-23T02:04:30.348Z,7.91
2018-12-23T02:09:26.347Z,7.90
2018-12-23T02:14:22.337Z,7.88
2018-12-23T02:19:18.328Z,7.85
2018-12-23T02:24:14.313Z,7.88
2018-12-23T02:29:10.296Z,7.89
2018-12-23T02:34:06.293Z,7.89
2018-12-23T02:39:04.308Z,7.90
2018-12-23T02:44:00.301Z,7.90
2018-12-23T02:48:56.298Z,7.91
2018-12-23T02:53:52.289Z,7.93
2018-12-23T02:58:48.324Z,7.97
2018-12-23T03:03:44.403Z,8.01
2018-12-23T03:08:40.387Z,7.98
2018-12-23T03:13:36.378Z,7.95
2018-12-23T03:18:32.368Z,7.99
2018-12-23T03:23:28.356Z,8.03
2018-12-23T03:28:25.060Z,8.03
2018-12-23T03:33:21.057Z,8.04
2018-12-23T03:38:17.050Z,8.07
2018-12-23T03:43:13.062Z,8.06
2018-12-23T03:48:09.038Z,8.06
2018-12-23T03:53:05.025Z,8.10
2018-12-23T03:58:06.090Z,8.07
2018-12-23T04:03:08.953Z,8.10
2018-12-23T04:08:04.946Z,8.12
2018-12-23T04:13:00.934Z,8.12
2018-12-23T04:17:57.047Z,8.15
2018-12-23T04:22:53.090Z,8.15
2018-12-23T04:27:51.750Z,8.14
2018-12-23T04:32:47.816Z,8.20
2018-12-23T04:37:50.778Z,8.17
2018-12-23T04:42:46.777Z,8.15
2018-12-23T04:47:42.762Z,8.15
2018-12-23T04:52:38.749Z,8.16
2018-12-23T04:57:36.303Z,8.14
2018-12-23T05:02:32.352Z,8.18
2018-12-23T05:07:28.342Z,8.18
2018-12-23T05:12:24.342Z,8.15
2018-12-23T05:17:20.328Z,8.21
2018-12-23T05:22:16.340Z,8.13
2018-12-23T05:27:12.341Z,8.18
2018-12-23T05:32:08.353Z,8.11
2018-12-23T05:37:04.353Z,8.12
2018-12-23T05:42:00.461Z,8.08
2018-12-23T05:46:56.444Z,8.14
2018-12-23T05:51:52.433Z,8.08
2018-12-23T05:56:48.432Z,8.07
2018-12-23T06:01:44.468Z,8.12
2018-12-23T06:06:40.462Z,8.07
2018-12-23T06:11:36.455Z,8.12
2018-12-23T06:16:32.453Z,8.03
2018-12-23T06:21:28.459Z,8.04
2018-12-23T06:26:24.476Z,8.07
2018-12-23T06:31:20.550Z,8.03
2018-12-23T06:36:18.934Z,8.06
2018-12-23T06:41:14.933Z,8.00
2018-12-23T06:46:10.989Z,8.04
2018-12-23T06:51:07.168Z,8.00
2018-12-23T06:56:03.181Z,8.09
2018-12-23T07:00:59.457Z,8.03
2018-12-23T07:05:55.459Z,8.10
2018-12-23T07:10:51.449Z,8.11
2018-12-23T07:15:47.457Z,8.14
2018-12-23T07:20:43.489Z,8.18
2018-12-23T07:25:39.510Z,8.12
2018-12-23T07:30:35.547Z,8.17
2018-12-23T07:35:31.613Z,8.13
2018-12-23T07:40:27.695Z,8.17
2018-12-23T07:45:23.792Z,8.10
2018-12-23T07:50:19.852Z,8.13
2018-12-23T07:55:15.877Z,8.09
2018-12-23T08:00:11.951Z,8.11
2018-12-23T08:05:07.996Z,8.14
2018-12-23T08:21:14.421Z,8.13
2018-12-23T08:26:10.493Z,8.12
2018-12-23T08:31:06.658Z,8.15
2018-12-23T08:36:02.866Z,8.15
2018-12-23T08:40:58.933Z,8.14
2018-12-23T08:45:54.996Z,8.12
2018-12-23T08:50:51.041Z,8.20
2018-12-23T08:55:47.067Z,8.24
2018-12-23T09:00:43.113Z,8.28
2018-12-23T09:05:39.128Z,8.29
2018-12-23T09:10:35.200Z,8.28
2018-12-23T09:15:31.270Z,8.31
2018-12-23T09:20:27.313Z,8.38
2018-12-23T09:25:44.001Z,8.35
2018-12-23T09:30:40.919Z,8.37
2018-12-23T09:35:58.141Z,8.39
2018-12-23T09:40:55.164Z,8.44
2018-12-23T09:45:51.408Z,8.45
2018-12-23T09:50:47.552Z,8.47
2018-12-23T09:55:43.919Z,8.52
2018-12-23T10:00:40.129Z,8.59
2018-12-23T10:11:21.475Z,8.51
2018-12-23T10:21:33.783Z,8.59
2018-12-23T10:26:33.471Z,8.63
2018-12-23T10:31:31.079Z,8.62
2018-12-23T10:47:09.319Z,8.60
2018-12-23T10:52:28.025Z,8.59
2018-12-23T11:03:11.188Z,8.53
2018-12-23T11:14:06.511Z,8.52
2018-12-23T11:19:07.978Z,8.52
2018-12-23T11:24:25.900Z,8.54
2018-12-23T11:29:28.961Z,8.49
2018-12-23T11:34:48.703Z,8.60
2018-12-23T11:40:09.705Z,8.55
2018-12-23T11:50:11.359Z,8.55
2018-12-23T12:01:06.554Z,8.53
2018-12-23T12:06:25.583Z,8.53
2018-12-23T12:11:23.815Z,8.57
2018-12-23T12:16:21.070Z,8.50
2018-12-23T12:33:12.942Z,8.48
2018-12-23T12:38:52.206Z,8.56
2018-12-23T12:44:09.814Z,8.65
2018-12-23T12:49:48.651Z,8.46
2018-12-23T13:00:52.158Z,8.48
2018-12-23T13:11:56.927Z,8.47
2018-12-23T13:28:18.368Z,8.45
2018-12-23T13:33:15.413Z,8.44
2018-12-23T13:38:12.466Z,8.55
2018-12-23T13:43:48.971Z,8.63
2018-12-23T13:49:07.997Z,8.64
2018-12-23T13:54:45.816Z,8.62
2018-12-23T14:00:21.644Z,8.58
2018-12-23T14:05:59.467Z,8.65
2018-12-23T14:11:37.239Z,8.58
2018-12-23T14:16:33.275Z,8.49
2018-12-23T14:21:30.314Z,8.51
2018-12-23T14:26:26.569Z,8.34
2018-12-23T14:31:22.701Z,8.42
2018-12-23T14:36:18.933Z,8.31
2018-12-23T14:41:14.994Z,8.31
2018-12-23T14:46:11.042Z,8.17
2018-12-23T14:51:29.282Z,7.99
2018-12-23T14:56:25.520Z,8.09
2018-12-23T15:01:21.662Z,8.04
2018-12-23T15:06:17.703Z,8.23
2018-12-23T15:11:13.836Z,8.21
2018-12-23T15:16:09.878Z,8.01
2018-12-23T15:21:05.931Z,8.32
2018-12-23T15:26:01.977Z,8.13
2018-12-23T15:30:58.066Z,7.71
2018-12-23T15:35:54.159Z,7.71
2018-12-23T15:40:51.237Z,7.61
2018-12-23T15:45:47.722Z,8.09
2018-12-23T15:50:45.022Z,7.68
2018-12-23T15:55:43.017Z,7.75
2018-12-23T16:00:59.328Z,7.70
2018-12-23T16:05:56.584Z,7.53
2018-12-23T16:10:53.147Z,7.69
2018-12-23T16:15:51.443Z,7.33
2018-12-23T16:21:07.336Z,7.30
2018-12-23T16:26:03.366Z,7.28
2018-12-23T16:30:59.389Z,7.68
2018-12-23T16:35:55.496Z,7.73
2018-12-23T16:40:51.541Z,7.36
2018-12-23T16:45:47.842Z,7.32
2018-12-23T16:50:44.058Z,7.18
2018-12-23T16:55:40.072Z,7.34
2018-12-23T17:00:36.200Z,7.74
2018-12-23T17:05:33.766Z,7.64
2018-12-23T17:10:29.821Z,7.15
2018-12-23T17:15:25.875Z,7.21
2018-12-23T17:20:25.381Z,7.23
2018-12-23T17:25:21.602Z,7.15
2018-12-23T17:30:17.643Z,7.18
2018-12-23T17:35:33.661Z,7.27
2018-12-23T17:40:30.247Z,7.19
2018-12-23T17:45:27.847Z,7.16
2018-12-23T17:50:24.015Z,7.51
2018-12-23T17:55:20.054Z,7.19
2018-12-23T18:00:16.192Z,7.12
2018-12-23T18:05:12.234Z,7.35
2018-12-23T18:10:08.249Z,7.18
2018-12-23T18:15:45.950Z,7.13
2018-12-23T18:20:41.968Z,7.04
2018-12-23T18:25:37.988Z,6.97
2018-12-23T18:30:34.318Z,7.09
2018-12-23T18:35:30.521Z,7.17
2018-12-23T18:40:33.348Z,6.96
2018-12-23T18:45:24.591Z,6.79
2018-12-23T18:50:20.591Z,6.81
2018-12-23T18:55:16.631Z,6.91
2018-12-23T19:00:12.845Z,6.75
2018-12-23T19:05:08.961Z,7.16
2018-12-23T19:10:46.636Z,6.99
2018-12-23T19:16:24.295Z,7.45
2018-12-23T19:22:01.956Z,7.09
2018-12-23T19:27:39.260Z,7.04
2018-12-23T19:33:15.121Z,6.74
2018-12-23T19:38:52.970Z,6.89
2018-12-23T19:44:28.827Z,7.30
2018-12-23T19:50:06.476Z,6.96
2018-12-23T19:55:44.126Z,7.31
2018-12-23T20:01:21.907Z,7.27
2018-12-23T20:06:57.658Z,6.83
2018-12-23T20:12:33.411Z,7.25
2018-12-23T20:18:11.067Z,6.82
2018-12-23T20:23:46.821Z,7.15
2018-12-23T20:29:22.573Z,6.84
2018-12-23T20:34:58.334Z,7.11
2018-12-23T20:40:36.012Z,7.05
2018-12-23T20:46:11.762Z,6.75
2018-12-23T20:51:49.418Z,6.51
2018-12-23T20:57:25.167Z,6.55
2018-12-23T21:03:00.951Z,6.73
2018-12-23T21:08:38.641Z,6.66
2018-12-23T21:14:16.301Z,6.63
2018-12-23T21:19:38.882Z,6.62
2018-12-23T21:24:56.463Z,6.10
2018-12-23T21:30:34.123Z,6.06
2018-12-23T21:36:12.152Z,6.67
2018-12-23T21:41:49.819Z,5.89
2018-12-23T21:47:25.573Z,5.81
2018-12-23T21:53:03.257Z,5.72
2018-12-23T22:04:36.193Z,5.79
2018-12-23T22:10:13.845Z,5.76
2018-12-23T22:15:09.858Z,5.82
2018-12-23T22:20:05.980Z,5.79
2018-12-23T22:25:02.007Z,5.76
2018-12-23T22:29:58.019Z,5.82
2018-12-23T22:34:54.007Z,5.61
2018-12-23T22:39:50.141Z,5.57
2018-12-23T22:44:46.151Z,5.55
2018-12-23T22:49:42.171Z,5.48
2018-12-23T22:54:38.185Z,5.62
2018-12-23T22:59:34.199Z,5.52
2018-12-23T23:04:30.214Z,5.58
2018-12-23T23:09:26.237Z,5.56
2018-12-23T23:14:22.246Z,5.65
2018-12-23T23:19:18.265Z,5.67
2018-12-23T23:24:14.274Z,5.57
2018-12-23T23:29:10.299Z,5.60
2018-12-23T23:34:06.526Z,5.56
2018-12-23T23:39:44.192Z,5.61
2018-12-23T23:44:40.206Z,5.56
2018-12-23T23:49:36.227Z,5.65
2018-12-23T23:54:32.241Z,5.66
2018-12-23T23:59:28.254Z,5.64
